deformed-offering

Nearby METAR Reports

 

KSJC - San Jose, California, USA
Distance from station: NE 9mi, 14km
Updated: Tue, 29-Nov-2022 6:53pm PST
Clear
Clear
 Wind from NNW
Wind: NNW 8 mph , 13 km/h
Temperature: 50°F , 10°C
Wind Chill: 47°F , 8°C
Dew Point: 37°F , 3°C
Humidity: 62%
Barometer: 30.02 inHg , 1016.6 hPa
Clouds: Clear
Visibility: 10 miles , 16 km
2022/11/30 02:53 KSJC 300253Z 33007KT 10SM CLR 10/03 A3002 RMK AO2 SLP165 T01000028 53012
KPAO - Palo Alto, California, USA
Distance from station: NNW 14mi, 23km
Updated: Tue, 29-Nov-2022 6:47pm PST
Clear
Clear
 Wind from NW
Wind: NW 6 mph , 9 km/h
Temperature: 45°F , 7°C
Wind Chill: 42°F , 6°C
Dew Point: 37°F , 3°C
Humidity: 76%
Barometer: 30.03 inHg , 1016.9 hPa
Clouds: Clear
Visibility: 10 miles , 16 km
2022/11/30 02:47 KPAO 300247Z 32005KT 10SM SKC 07/03 A3003
 
KSQL - San Carlos Airpo, California, USA
Distance from station: NW 21mi, 34km
Updated: Tue, 29-Nov-2022 6:47pm PST
Few Clouds
Few Clouds
 Wind from calm
Wind: Calm
Temperature: 50°F , 10°C
Dew Point: 37°F , 3°C
Humidity: 62%
Barometer: 30.03 inHg , 1016.9 hPa
Clouds: Few Clouds
Visibility: 10 miles , 16 km
Cloud details: Few Clouds 20000 ft
2022/11/30 02:47 KSQL 300247Z 00000KT 10SM FEW200 10/03 A3003
KWVI - Watsonville, California, USA
Distance from station: SSE 27mi, 44km
Updated: Tue, 29-Nov-2022 6:53pm PST
Clear
Clear
 Wind from N
Wind: N 5 mph , 7 km/h
Temperature: 45°F , 7°C
Wind Chill: 42°F , 6°C
Dew Point: 39°F , 4°C
Humidity: 81%
Barometer: 30.01 inHg , 1016.3 hPa
Clouds: Clear
Visibility: 10 miles , 16 km
2022/11/30 02:53 KWVI 300253Z AUTO 35004KT 10SM CLR 07/04 A3001 RMK AO2 SLP164 T00670039 53010
 
KHWD - Hayward, California, USA
Distance from station: N 28mi, 44km
Updated: Tue, 29-Nov-2022 6:54pm PST
Clear
Clear
 Wind from calm
Wind: Calm
Temperature: 48°F , 9°C
Dew Point: 37°F , 3°C
Humidity: 66%
Barometer: 30.02 inHg , 1016.6 hPa
Clouds: Clear
2022/11/30 02:54 KHWD 300254Z 00000KT CLR 09/03 A3002 RMK AO2 SLP176 T00940033 53010 $
KSFO - San Francisco, California, USA
Distance from station: NW 30mi, 49km
Updated: Tue, 29-Nov-2022 6:56pm PST
Few Clouds
Few Clouds
 Wind from WNW
Wind: WNW 12 mph , 19 km/h
Temperature: 50°F , 10°C
Wind Chill: 45°F , 7°C
Dew Point: 37°F , 3°C
Humidity: 62%
Barometer: 30.02 inHg , 1016.6 hPa
Clouds: Few Clouds
Visibility: 10 miles , 16 km
Cloud details: Few Clouds 20000 ft
2022/11/30 02:56 KSFO 300256Z 29010KT 10SM FEW200 10/03 A3002 RMK AO2 SLP165 T01000033 53006
 
KHAF - Half Moon Bay, California, USA
Distance from station: WNW 31mi, 50km
Updated: Tue, 29-Nov-2022 7:15pm PST
Clear
Clear
 
Temperature: 39°F , 4°C
Dew Point: 34°F , 1°C
Humidity: 81%
Barometer: 30.03 inHg , 1016.9 hPa
Clouds: Clear
Visibility: 10 miles , 16 km
2022/11/30 03:15 KHAF 300315Z AUTO 10SM CLR 04/01 A3003 RMK AO2
KLVK - Livermore, California, USA
Distance from station: NNE 31mi, 51km
Updated: Tue, 29-Nov-2022 6:53pm PST
Clear
Clear
 Wind from calm
Wind: Calm
Temperature: 46°F , 8°C
Dew Point: 25°F , -4°C
Humidity: 43%
Barometer: 30.01 inHg , 1016.3 hPa
Clouds: Clear
Visibility: 10 miles , 16 km
2022/11/30 02:53 KLVK 300253Z 00000KT 10SM CLR 08/M04 A3001 RMK AO2 SLP162 T00781039 53009
 
KOAK - Oakland, California, USA
Distance from station: NNW 33mi, 53km
Updated: Tue, 29-Nov-2022 6:53pm PST
Few Clouds
Few Clouds
 Wind from NW
Wind: NW 7 mph , 11 km/h
Temperature: 48°F , 9°C
Wind Chill: 45°F , 7°C
Dew Point: 37°F , 3°C
Humidity: 66%
Barometer: 30.03 inHg , 1016.9 hPa
Clouds: Few Clouds
Visibility: 10 miles , 16 km
Cloud details: Few Clouds 18000 ft
2022/11/30 02:53 KOAK 300253Z 31006KT 10SM FEW180 09/03 A3003 RMK AO2 SLP168 T00940028 53008
KCVH - Hollister Muni, California, USA
Distance from station: SE 42mi, 68km
Updated: Tue, 29-Nov-2022 7:15pm PST
Clear
Clear
 Wind from calm
Wind: Calm
Temperature: 46°F , 8°C
Dew Point: 30°F , -1°C
Humidity: 53%
Barometer: 30.03 inHg , 1016.9 hPa
Clouds: Clear
Visibility: 10 miles , 16 km
2022/11/30 03:15 KCVH 300315Z AUTO 00000KT 10SM CLR 08/M01 A3003 RMK A01
 
KSNS - Salinas, California, USA
Distance from station: SSE 48mi, 77km
Updated: Tue, 29-Nov-2022 6:53pm PST
Clear
Clear
 Wind from NW
Wind: NW 3 mph , 6 km/h
Temperature: 50°F , 10°C
Dew Point: 41°F , 5°C
Humidity: 71%
Barometer: 30.02 inHg , 1016.6 hPa
Clouds: Clear
Visibility: 10 miles , 16 km
2022/11/30 02:53 KSNS 300253Z 31003KT 10SM CLR 10/05 A3002 RMK AO2 SLP175 T01000050 53014
KMRY - Monterey, California, USA
Distance from station: SSE 49mi, 78km
Updated: Tue, 29-Nov-2022 6:54pm PST
Clear
Clear
 Wind from S
Wind: S 3 mph , 6 km/h
Temperature: 46°F , 8°C
Dew Point: 39°F , 4°C
Humidity: 76%
Barometer: 30.03 inHg , 1016.9 hPa
Clouds: Clear
Visibility: 10 miles , 16 km
2022/11/30 02:54 KMRY 300254Z 19003KT 10SM CLR 08/04 A3003 RMK AO2 SLP181 T00780039 53010
 
KCCR - Concord, California, USA
Distance from station: N 50mi, 81km
Updated: Tue, 29-Nov-2022 6:53pm PST
Clear
Clear
 Wind from calm
Wind: Calm
Temperature: 46°F , 8°C
Dew Point: 27°F , -3°C
Humidity: 46%
Barometer: 30.02 inHg , 1016.6 hPa
Clouds: Clear
Visibility: 10 miles , 16 km
2022/11/30 02:53 KCCR 300253Z 00000KT 10SM CLR 08/M03 A3002 RMK AO2 SLP150 T00781028 53006
deformed-offering